Time;durP1;ratioP1;P1;durP2;ratioP2;P2;SDS_P1;SDS_P2;PMS_P1;PMS_P2;Temp;Humidity;BMP_temperature;BMP_pressure;BME280_temperature;BME280_humidity;BME280_pressure;Samples;Min_cycle;Max_cycle;Signal;HPM_P1;HPM_P2
2022/01/18 00:00:51;;;;;;;59.53;23.05;;;;;;;;;;5067561;28;20040;-77
2022/01/18 00:03:16;;;;;;;55.10;22.40;;;;;;;;;;5068518;28;20077;-77
2022/01/18 00:05:44;;;;;;;57.00;22.23;;;;;;;;;;5065786;28;20116;-77
2022/01/18 00:08:09;;;;;;;55.08;21.50;;;;;;;;;;5069815;28;20043;-77
2022/01/18 00:10:35;;;;;;;53.63;22.48;;;;;;;;;;5068225;28;20037;-77
2022/01/18 00:15:38;;;;;;;60.05;21.65;;;;;;;;;;5061956;28;20029;-76
2022/01/18 00:20:51;;;;;;;55.95;21.55;;;;;;;;;;5065538;28;20116;-78
2022/01/18 00:23:18;;;;;;;52.67;20.92;;;;;;;;;;5058757;28;20124;-77
2022/01/18 00:25:47;;;;;;;62.95;23.65;;;;;;;;;;5070122;28;20020;-77
2022/01/18 00:28:13;;;;;;;54.88;21.88;;;;;;;;;;5061763;28;20044;-77
2022/01/18 00:33:24;;;;;;;58.45;22.25;;;;;;;;;;5060811;28;20110;-76
2022/01/18 00:36:00;;;;;;;60.60;23.13;;;;;;;;;;5049022;28;20648;-77
2022/01/18 00:38:46;;;;;;;57.95;22.38;;;;;;;;;;5060356;28;20681;-77
2022/01/18 00:41:13;;;;;;;53.25;21.10;;;;;;;;;;5065839;28;20040;-76
2022/01/18 00:43:40;;;;;;;57.67;22.20;;;;;;;;;;5061712;28;20036;-77
2022/01/18 00:46:06;;;;;;;67.13;21.45;;;;;;;;;;5057785;28;20028;-77
2022/01/18 00:48:33;;;;;;;60.40;23.73;;;;;;;;;;5088210;28;20040;-77
2022/01/18 00:50:59;;;;;;;58.97;21.27;;;;;;;;;;5087801;28;20067;-77
2022/01/18 00:53:26;;;;;;;69.47;22.65;;;;;;;;;;5080201;28;20099;-77
2022/01/18 00:56:40;;;;;;;52.65;20.80;;;;;;;;;;5060264;28;20417;-76
2022/01/18 00:58:42;;;;;;;60.38;21.88;;;;;;;;;;5052428;28;20040;-77
2022/01/18 01:01:09;;;;;;;63.20;23.08;;;;;;;;;;5056011;28;20052;-76
2022/01/18 01:03:35;;;;;;;57.03;22.23;;;;;;;;;;5060185;28;20135;-77
2022/01/18 01:06:01;;;;;;;58.35;21.60;;;;;;;;;;5053626;28;20120;-77
2022/01/18 01:08:27;;;;;;;55.83;21.25;;;;;;;;;;5068086;28;20047;-77
2022/01/18 01:10:53;;;;;;;53.88;22.08;;;;;;;;;;5064293;28;20575;-77
2022/01/18 01:13:19;;;;;;;60.38;22.75;;;;;;;;;;5056925;28;20024;-77
2022/01/18 01:18:37;;;;;;;60.13;23.02;;;;;;;;;;5065078;28;20032;-77
2022/01/18 01:34:42;;;;;;;52.40;22.50;;;;;;;;;;5059946;28;20108;-77
2022/01/18 01:45:05;;;;;;;65.85;23.98;;;;;;;;;;5061129;28;19924;-76
2022/01/18 01:47:35;;;;;;;61.47;21.83;;;;;;;;;;5058901;28;20139;-77
2022/01/18 01:50:07;;;;;;;63.55;23.85;;;;;;;;;;5059354;28;20032;-77
2022/01/18 01:52:32;;;;;;;66.57;22.50;;;;;;;;;;5066100;28;20020;-76
2022/01/18 01:54:58;;;;;;;63.78;26.05;;;;;;;;;;5057831;28;20098;-77
2022/01/18 01:57:24;;;;;;;72.95;24.60;;;;;;;;;;5061425;28;20078;-76
2022/01/18 01:59:50;;;;;;;58.95;22.27;;;;;;;;;;5079117;28;20093;-76
2022/01/18 02:02:15;;;;;;;61.95;24.48;;;;;;;;;;5092047;28;20111;-77
2022/01/18 02:04:41;;;;;;;68.57;25.38;;;;;;;;;;5067254;28;20030;-77
2022/01/18 02:07:06;;;;;;;63.92;23.17;;;;;;;;;;5071504;28;20044;-77
2022/01/18 02:09:33;;;;;;;58.47;21.58;;;;;;;;;;5059647;28;20037;-76
2022/01/18 02:12:00;;;;;;;63.65;23.35;;;;;;;;;;5061482;28;20043;-77
2022/01/18 02:14:26;;;;;;;56.13;22.05;;;;;;;;;;5059922;28;20032;-77
2022/01/18 02:22:21;;;;;;;63.63;22.92;;;;;;;;;;5062457;28;20544;-77
2022/01/18 02:24:46;;;;;;;61.00;21.00;;;;;;;;;;5079313;28;20036;-76
2022/01/18 02:27:13;;;;;;;62.67;23.20;;;;;;;;;;5077065;28;20560;-77
2022/01/18 02:29:38;;;;;;;58.30;22.60;;;;;;;;;;5072766;28;20068;-77
2022/01/18 02:32:04;;;;;;;63.50;23.25;;;;;;;;;;5059563;28;20431;-77
2022/01/18 02:34:29;;;;;;;62.22;22.50;;;;;;;;;;5056282;28;20769;-77
2022/01/18 02:36:57;;;;;;;63.78;22.48;;;;;;;;;;5059619;28;20036;-77
2022/01/18 02:39:32;;;;;;;57.90;23.77;;;;;;;;;;5053982;28;20040;-77
2022/01/18 02:42:04;;;;;;;64.45;23.70;;;;;;;;;;5056810;28;20098;-77
2022/01/18 02:44:31;;;;;;;59.40;23.95;;;;;;;;;;5066921;28;20510;-77
2022/01/18 02:46:58;;;;;;;55.42;22.17;;;;;;;;;;5067196;28;20032;-77
2022/01/18 02:49:24;;;;;;;58.42;23.70;;;;;;;;;;5066743;28;20020;-78
2022/01/18 02:51:50;;;;;;;56.38;22.70;;;;;;;;;;5067102;28;20032;-77
2022/01/18 02:54:17;;;;;;;56.35;21.83;;;;;;;;;;5066763;28;20040;-77
2022/01/18 02:56:54;;;;;;;64.53;23.63;;;;;;;;;;5066269;28;20039;-77
2022/01/18 03:00:18;;;;;;;58.33;22.13;;;;;;;;;;5054093;28;20040;-77
2022/01/18 03:05:00;;;;;;;65.78;22.33;;;;;;;;;;5069604;28;20059;-77
2022/01/18 03:07:26;;;;;;;61.05;21.48;;;;;;;;;;5062127;28;20414;-77
2022/01/18 03:09:51;;;;;;;53.05;21.83;;;;;;;;;;5058757;28;20527;-77
2022/01/18 03:12:16;;;;;;;57.17;22.63;;;;;;;;;;5062016;28;20421;-77
2022/01/18 03:14:42;;;;;;;59.40;21.30;;;;;;;;;;5066685;28;20028;-77
2022/01/18 03:17:07;;;;;;;58.13;22.85;;;;;;;;;;5060649;28;20077;-77
2022/01/18 03:19:33;;;;;;;57.45;21.95;;;;;;;;;;5064234;28;20502;-77
2022/01/18 03:21:58;;;;;;;59.42;21.52;;;;;;;;;;5059474;28;20063;-77
2022/01/18 03:29:33;;;;;;;62.38;22.70;;;;;;;;;;5059729;28;20036;-77
2022/01/18 03:31:59;;;;;;;64.00;22.63;;;;;;;;;;5066392;28;20024;-77
2022/01/18 03:34:24;;;;;;;62.72;22.60;;;;;;;;;;5061298;28;20074;-77
2022/01/18 03:36:49;;;;;;;56.92;22.45;;;;;;;;;;5057075;28;20044;-77
2022/01/18 03:39:15;;;;;;;59.53;23.13;;;;;;;;;;5066782;28;20033;-77
2022/01/18 03:41:40;;;;;;;66.07;23.45;;;;;;;;;;5068691;28;20033;-77
2022/01/18 03:44:06;;;;;;;60.10;23.38;;;;;;;;;;5069002;28;20024;-77
2022/01/18 03:46:36;;;;;;;53.60;21.35;;;;;;;;;;5068094;28;20035;-77
2022/01/18 03:49:05;;;;;;;65.80;23.65;;;;;;;;;;5068651;28;20033;-77
2022/01/18 03:51:31;;;;;;;59.92;22.33;;;;;;;;;;5064747;28;20123;-77
2022/01/18 03:53:56;;;;;;;57.80;22.60;;;;;;;;;;5058047;28;20102;-76
2022/01/18 03:56:21;;;;;;;58.20;21.88;;;;;;;;;;5061843;28;20033;-77
2022/01/18 03:58:47;;;;;;;49.55;21.17;;;;;;;;;;5062382;28;20097;-77
2022/01/18 04:01:12;;;;;;;60.22;21.90;;;;;;;;;;5068802;28;20565;-77
2022/01/18 04:03:37;;;;;;;65.97;22.73;;;;;;;;;;5068377;28;20032;-77
2022/01/18 04:06:03;;;;;;;59.03;21.90;;;;;;;;;;5069166;28;20029;-77
2022/01/18 04:08:28;;;;;;;56.28;22.42;;;;;;;;;;5067124;28;20124;-77
2022/01/18 04:10:53;;;;;;;65.15;22.30;;;;;;;;;;5065300;28;20115;-77
2022/01/18 04:13:19;;;;;;;59.10;23.33;;;;;;;;;;5064267;28;20090;-77
2022/01/18 04:15:44;;;;;;;55.55;21.65;;;;;;;;;;5061611;28;20098;-77
2022/01/18 04:18:24;;;;;;;58.80;22.90;;;;;;;;;;5065056;28;20040;-77
2022/01/18 04:28:58;;;;;;;58.70;23.73;;;;;;;;;;5067964;28;20028;-77
2022/01/18 04:31:25;;;;;;;61.28;22.48;;;;;;;;;;5068111;28;20024;-78
2022/01/18 04:33:51;;;;;;;56.72;22.48;;;;;;;;;;5051997;28;20055;-77
2022/01/18 04:36:17;;;;;;;53.05;21.55;;;;;;;;;;5058335;28;20041;-76
2022/01/18 04:38:43;;;;;;;53.03;22.05;;;;;;;;;;5058167;28;20056;-77
2022/01/18 04:41:15;;;;;;;52.47;21.63;;;;;;;;;;5062028;28;20574;-77
2022/01/18 04:44:07;;;;;;;54.53;22.95;;;;;;;;;;5061552;28;20028;-77
2022/01/18 04:49:16;;;;;;;55.42;22.08;;;;;;;;;;5083753;28;20039;-77
2022/01/18 04:51:44;;;;;;;54.78;22.05;;;;;;;;;;5085882;28;20040;-77
2022/01/18 04:54:10;;;;;;;54.47;22.42;;;;;;;;;;5087383;28;20525;-77
2022/01/18 04:59:04;;;;;;;55.05;21.35;;;;;;;;;;5101137;28;20409;-77
2022/01/18 05:01:30;;;;;;;60.50;23.95;;;;;;;;;;5088768;28;20044;-77
2022/01/18 05:03:56;;;;;;;60.00;22.50;;;;;;;;;;5086544;28;20520;-77
2022/01/18 05:06:22;;;;;;;51.42;20.33;;;;;;;;;;5080260;28;20028;-76
2022/01/18 05:08:47;;;;;;;58.38;21.63;;;;;;;;;;5081561;28;20043;-77
2022/01/18 05:11:16;;;;;;;49.35;20.70;;;;;;;;;;5078646;28;21594;-77
2022/01/18 05:21:26;;;;;;;57.42;20.85;;;;;;;;;;5087410;28;20032;-77
2022/01/18 05:23:51;;;;;;;54.45;21.98;;;;;;;;;;5085218;28;20131;-78
2022/01/18 05:26:17;;;;;;;66.57;23.25;;;;;;;;;;5085657;28;20523;-76
2022/01/18 05:28:42;;;;;;;59.13;22.60;;;;;;;;;;5081663;28;20503;-77
2022/01/18 05:31:08;;;;;;;55.05;23.02;;;;;;;;;;5080273;28;20075;-77
2022/01/18 05:33:33;;;;;;;58.78;23.55;;;;;;;;;;5082502;28;20031;-77
2022/01/18 05:35:59;;;;;;;56.72;20.65;;;;;;;;;;5077068;28;20027;-77
2022/01/18 05:38:24;;;;;;;57.22;21.65;;;;;;;;;;5080442;28;20524;-77
2022/01/18 05:40:50;;;;;;;53.45;21.05;;;;;;;;;;5075949;28;20503;-77
2022/01/18 05:43:16;;;;;;;53.53;20.60;;;;;;;;;;5079263;28;20016;-77
2022/01/18 05:45:41;;;;;;;56.53;22.27;;;;;;;;;;5076619;28;20438;-77
2022/01/18 05:48:06;;;;;;;53.92;21.80;;;;;;;;;;5073235;28;20595;-77
2022/01/18 05:50:32;;;;;;;68.07;22.48;;;;;;;;;;5080215;28;20580;-77
2022/01/18 05:52:57;;;;;;;62.50;21.95;;;;;;;;;;5084838;28;20032;-77
2022/01/18 05:55:22;;;;;;;50.33;20.55;;;;;;;;;;5094409;28;20020;-78
2022/01/18 05:57:48;;;;;;;59.42;22.98;;;;;;;;;;5085415;28;20040;-77
2022/01/18 06:00:20;;;;;;;56.13;21.63;;;;;;;;;;5075740;28;20102;-77
2022/01/18 06:08:06;;;;;;;55.15;21.55;;;;;;;;;;5079654;28;20847;-77
2022/01/18 06:10:32;;;;;;;55.13;22.88;;;;;;;;;;5084444;28;20028;-77
2022/01/18 06:13:00;;;;;;;60.03;21.35;;;;;;;;;;5086259;28;20017;-77
2022/01/18 06:15:26;;;;;;;60.13;22.27;;;;;;;;;;5087100;28;20047;-77
2022/01/18 06:17:51;;;;;;;56.63;22.25;;;;;;;;;;5081538;28;20033;-77
2022/01/18 06:20:16;;;;;;;65.65;24.13;;;;;;;;;;5078087;28;20040;-76
2022/01/18 06:22:42;;;;;;;56.58;21.73;;;;;;;;;;5077623;28;20016;-77
2022/01/18 06:25:08;;;;;;;57.88;22.08;;;;;;;;;;5076960;28;20060;-77
2022/01/18 06:27:34;;;;;;;49.38;21.33;;;;;;;;;;5078184;28;20036;-76
2022/01/18 06:29:59;;;;;;;54.00;21.80;;;;;;;;;;5076401;28;20058;-77
2022/01/18 06:32:24;;;;;;;58.40;22.98;;;;;;;;;;5073023;28;20418;-77
2022/01/18 06:34:50;;;;;;;62.58;22.25;;;;;;;;;;5061088;28;20162;-77
2022/01/18 06:37:16;;;;;;;46.75;21.85;;;;;;;;;;5063291;28;20028;-77
2022/01/18 06:39:41;;;;;;;58.17;22.48;;;;;;;;;;5062069;28;20656;-76
2022/01/18 06:42:08;;;;;;;55.42;21.73;;;;;;;;;;5057883;28;20047;-77
2022/01/18 06:44:33;;;;;;;50.55;21.45;;;;;;;;;;5057430;28;20666;-77
2022/01/18 06:46:58;;;;;;;51.47;20.65;;;;;;;;;;5059295;28;20017;-77
2022/01/18 06:49:24;;;;;;;59.53;22.25;;;;;;;;;;5060347;28;20017;-76
2022/01/18 06:51:49;;;;;;;52.60;22.00;;;;;;;;;;5059469;28;20024;-77
2022/01/18 06:54:17;;;;;;;69.10;25.00;;;;;;;;;;5056250;28;20089;-77
2022/01/18 06:56:46;;;;;;;61.58;24.33;;;;;;;;;;5060455;28;20437;-77
2022/01/18 06:59:13;;;;;;;66.45;26.58;;;;;;;;;;5063511;28;20057;-78
2022/01/18 07:01:39;;;;;;;71.72;26.13;;;;;;;;;;5064138;28;20117;-77
2022/01/18 07:04:05;;;;;;;70.13;27.30;;;;;;;;;;5059541;28;20597;-77
2022/01/18 07:06:31;;;;;;;65.82;25.50;;;;;;;;;;5061754;28;20089;-77
2022/01/18 07:09:01;;;;;;;66.03;24.08;;;;;;;;;;5054927;28;20041;-77
2022/01/18 07:11:26;;;;;;;70.45;24.00;;;;;;;;;;5059460;28;20036;-76
2022/01/18 07:13:52;;;;;;;61.78;23.63;;;;;;;;;;5064888;28;20526;-76
2022/01/18 07:16:17;;;;;;;77.22;28.40;;;;;;;;;;5063849;28;20149;-76
2022/01/18 07:18:43;;;;;;;88.93;31.60;;;;;;;;;;5071504;28;20119;-77
2022/01/18 07:21:11;;;;;;;80.30;30.48;;;;;;;;;;5061533;28;20052;-77
2022/01/18 07:23:37;;;;;;;72.43;26.55;;;;;;;;;;5069116;28;20033;-77
2022/01/18 07:26:03;;;;;;;66.65;25.98;;;;;;;;;;5065627;28;20092;-77
2022/01/18 07:28:29;;;;;;;67.57;27.17;;;;;;;;;;5064918;28;20036;-77
2022/01/18 07:30:54;;;;;;;57.55;22.75;;;;;;;;;;5060928;28;20047;-77
2022/01/18 07:33:20;;;;;;;63.83;23.05;;;;;;;;;;5061032;28;20119;-77
2022/01/18 07:35:46;;;;;;;67.28;23.58;;;;;;;;;;5061856;28;20522;-77
2022/01/18 07:38:16;;;;;;;70.32;24.55;;;;;;;;;;5048602;28;20458;-77
2022/01/18 07:40:43;;;;;;;64.70;23.17;;;;;;;;;;5079440;28;20043;-79
2022/01/18 07:43:09;;;;;;;69.40;25.35;;;;;;;;;;5058689;28;20044;-79
2022/01/18 07:45:35;;;;;;;64.25;23.73;;;;;;;;;;5058511;28;20051;-80
2022/01/18 07:48:01;;;;;;;62.95;23.58;;;;;;;;;;5062184;28;20045;-77
2022/01/18 07:50:26;;;;;;;65.22;24.08;;;;;;;;;;5059776;28;20056;-74
2022/01/18 07:52:52;;;;;;;71.40;23.67;;;;;;;;;;5066202;28;20016;-78
2022/01/18 07:55:17;;;;;;;63.75;22.75;;;;;;;;;;5063918;28;20040;-75
2022/01/18 07:57:43;;;;;;;67.53;23.38;;;;;;;;;;5061706;28;20457;-80
2022/01/18 08:00:13;;;;;;;73.00;24.60;;;;;;;;;;5061837;28;20056;-82
2022/01/18 08:02:39;;;;;;;70.97;24.48;;;;;;;;;;5061397;28;20585;-78
2022/01/18 08:05:06;;;;;;;64.05;24.05;;;;;;;;;;5060569;28;20042;-78
2022/01/18 08:07:31;;;;;;;66.07;23.95;;;;;;;;;;5063091;28;20108;-77
2022/01/18 08:09:57;;;;;;;68.70;22.58;;;;;;;;;;5057926;28;20032;-78
2022/01/18 08:12:23;;;;;;;70.45;23.98;;;;;;;;;;5073974;28;20047;-74
2022/01/18 08:14:49;;;;;;;79.20;24.13;;;;;;;;;;5071614;28;20041;-77
2022/01/18 08:17:15;;;;;;;85.47;26.20;;;;;;;;;;5056770;28;20138;-75
2022/01/18 08:19:40;;;;;;;78.28;25.17;;;;;;;;;;5064817;28;20036;-77
2022/01/18 08:22:06;;;;;;;76.32;25.45;;;;;;;;;;5081204;28;20089;-82
2022/01/18 08:24:32;;;;;;;71.65;25.95;;;;;;;;;;5084393;28;20047;-81
2022/01/18 08:26:57;;;;;;;70.10;24.67;;;;;;;;;;5080820;28;20036;-81
2022/01/18 08:29:23;;;;;;;87.20;26.67;;;;;;;;;;5087300;28;20048;-81
2022/01/18 08:31:48;;;;;;;105.85;26.63;;;;;;;;;;5086265;28;20275;-80
2022/01/18 08:34:14;;;;;;;91.03;27.05;;;;;;;;;;5079769;28;20032;-82
2022/01/18 08:36:40;;;;;;;77.55;24.80;;;;;;;;;;5079542;28;20036;-81
2022/01/18 08:39:07;;;;;;;83.00;25.42;;;;;;;;;;5077816;28;20195;-80
2022/01/18 08:41:33;;;;;;;82.88;26.42;;;;;;;;;;5078617;28;20187;-80
2022/01/18 08:43:58;;;;;;;81.57;25.75;;;;;;;;;;5079179;28;20502;-82
2022/01/18 08:46:23;;;;;;;74.60;26.38;;;;;;;;;;5059671;28;20489;-83
2022/01/18 08:48:49;;;;;;;74.45;25.88;;;;;;;;;;5080439;28;20036;-82
2022/01/18 08:51:15;;;;;;;85.85;27.67;;;;;;;;;;5082691;28;20036;-86
2022/01/18 08:53:42;;;;;;;91.85;27.60;;;;;;;;;;5083951;28;20044;-77
2022/01/18 08:56:08;;;;;;;105.43;27.92;;;;;;;;;;5066719;28;20042;-76
2022/01/18 08:58:34;;;;;;;77.88;25.20;;;;;;;;;;5076755;28;20029;-81
2022/01/18 09:01:02;;;;;;;74.38;25.08;;;;;;;;;;5066121;28;20967;-83
2022/01/18 09:03:27;;;;;;;86.75;26.90;;;;;;;;;;5066566;28;20502;-80
2022/01/18 09:05:53;;;;;;;75.97;26.85;;;;;;;;;;5064007;28;20109;-80
2022/01/18 09:08:20;;;;;;;81.20;28.02;;;;;;;;;;5055499;28;20395;-79
2022/01/18 09:10:47;;;;;;;92.28;28.60;;;;;;;;;;5058408;28;20036;-78
2022/01/18 09:13:14;;;;;;;117.20;27.55;;;;;;;;;;5056529;28;20480;-78
2022/01/18 09:15:40;;;;;;;80.57;29.38;;;;;;;;;;5060240;28;20049;-83
2022/01/18 09:18:06;;;;;;;79.20;26.40;;;;;;;;;;5072973;28;20055;-78
2022/01/18 09:20:31;;;;;;;68.38;26.90;;;;;;;;;;5059849;28;20068;-86
2022/01/18 09:22:57;;;;;;;71.88;27.60;;;;;;;;;;5058538;28;20028;-81
2022/01/18 09:25:27;;;;;;;75.07;27.45;;;;;;;;;;5059491;28;20025;-77
2022/01/18 09:27:54;;;;;;;73.63;28.70;;;;;;;;;;5063991;28;20676;-78
2022/01/18 09:30:20;;;;;;;76.10;26.98;;;;;;;;;;5065207;28;20056;-77
2022/01/18 09:32:47;;;;;;;68.85;25.67;;;;;;;;;;5062448;28;20123;-75
2022/01/18 09:35:14;;;;;;;66.55;26.85;;;;;;;;;;5057183;28;20142;-84
2022/01/18 09:37:41;;;;;;;69.00;27.23;;;;;;;;;;5059254;28;20029;-79
2022/01/18 09:40:07;;;;;;;71.28;27.08;;;;;;;;;;5059006;28;20044;-75
2022/01/18 09:42:39;;;;;;;63.50;25.83;;;;;;;;;;5060578;28;20036;-78
2022/01/18 09:45:07;;;;;;;68.45;25.95;;;;;;;;;;5063200;28;20513;-83
2022/01/18 09:47:34;;;;;;;79.93;25.48;;;;;;;;;;5064386;28;20040;-81
2022/01/18 09:49:59;;;;;;;58.58;23.20;;;;;;;;;;5064182;28;20029;-85
2022/01/18 09:52:25;;;;;;;57.92;23.15;;;;;;;;;;5066564;28;20269;-84
2022/01/18 09:54:50;;;;;;;62.15;22.20;;;;;;;;;;5062955;28;20059;-82
2022/01/18 09:57:15;;;;;;;60.75;21.52;;;;;;;;;;5055676;28;20041;-76
2022/01/18 09:59:41;;;;;;;63.40;22.80;;;;;;;;;;5059542;28;20044;-83
2022/01/18 10:02:10;;;;;;;58.83;22.60;;;;;;;;;;5069931;28;20418;-77
2022/01/18 10:04:41;;;;;;;54.42;22.52;;;;;;;;;;5060359;28;20135;-75
2022/01/18 10:07:06;;;;;;;50.30;21.30;;;;;;;;;;5063457;28;20047;-79
2022/01/18 10:09:34;;;;;;;52.30;19.45;;;;;;;;;;5054553;28;20040;-81
2022/01/18 10:12:13;;;;;;;54.17;19.55;;;;;;;;;;5057260;28;20055;-75
2022/01/18 10:14:51;;;;;;;52.40;19.58;;;;;;;;;;5066782;28;20049;-77
2022/01/18 10:17:31;;;;;;;44.17;17.63;;;;;;;;;;5055360;28;20040;-77
2022/01/18 10:20:18;;;;;;;47.45;17.60;;;;;;;;;;5058065;28;20040;-76
2022/01/18 10:22:48;;;;;;;39.63;15.52;;;;;;;;;;5060920;28;20032;-77
2022/01/18 10:25:28;;;;;;;42.22;15.75;;;;;;;;;;5061640;28;20193;-75
2022/01/18 10:27:55;;;;;;;41.45;14.93;;;;;;;;;;5063001;28;20068;-79
2022/01/18 10:30:33;;;;;;;43.00;15.13;;;;;;;;;;5061402;28;20102;-79
2022/01/18 10:33:13;;;;;;;48.00;15.88;;;;;;;;;;5061183;28;20033;-80
2022/01/18 10:36:02;;;;;;;39.90;15.68;;;;;;;;;;5056947;28;20045;-79
2022/01/18 10:38:27;;;;;;;39.78;14.35;;;;;;;;;;5057660;28;20041;-79
2022/01/18 10:40:53;;;;;;;41.90;14.38;;;;;;;;;;5060473;28;20043;-76
2022/01/18 10:43:30;;;;;;;35.45;13.07;;;;;;;;;;5063426;28;20135;-78
2022/01/18 10:46:15;;;;;;;35.35;13.57;;;;;;;;;;5065241;28;20090;-80
2022/01/18 10:48:48;;;;;;;36.25;12.60;;;;;;;;;;5063361;28;20045;-77
2022/01/18 10:51:31;;;;;;;38.25;13.45;;;;;;;;;;5058968;28;20413;-75
2022/01/18 10:54:03;;;;;;;30.63;12.15;;;;;;;;;;5061992;28;20063;-77
2022/01/18 10:56:47;;;;;;;34.15;12.00;;;;;;;;;;5057866;28;20040;-81
2022/01/18 10:59:24;;;;;;;30.88;12.93;;;;;;;;;;5058485;28;21167;-77
2022/01/18 11:02:15;;;;;;;35.60;12.35;;;;;;;;;;5056027;28;20048;-81
2022/01/18 11:04:47;;;;;;;31.27;13.18;;;;;;;;;;5060082;28;20032;-82
2022/01/18 11:07:15;;;;;;;35.30;12.73;;;;;;;;;;5066169;28;20406;-73
2022/01/18 11:09:41;;;;;;;45.40;14.95;;;;;;;;;;5066189;28;20036;-78
2022/01/18 11:12:08;;;;;;;43.60;15.13;;;;;;;;;;5054245;28;20040;-75
2022/01/18 11:14:37;;;;;;;39.38;14.70;;;;;;;;;;5059548;28;20067;-78
2022/01/18 11:17:06;;;;;;;38.88;13.82;;;;;;;;;;5051023;28;20029;-84
2022/01/18 11:19:34;;;;;;;47.90;17.48;;;;;;;;;;5058586;28;20016;-81
2022/01/18 11:22:07;;;;;;;45.70;15.63;;;;;;;;;;5058036;28;20036;-79
2022/01/18 11:24:35;;;;;;;48.67;16.48;;;;;;;;;;5059353;28;20067;-82
2022/01/18 11:27:03;;;;;;;53.00;17.13;;;;;;;;;;5057645;28;20063;-79
2022/01/18 11:29:30;;;;;;;47.85;17.40;;;;;;;;;;5062978;28;20581;-79
2022/01/18 11:31:56;;;;;;;53.20;19.17;;;;;;;;;;5066940;28;20048;-78
2022/01/18 11:34:38;;;;;;;58.92;18.90;;;;;;;;;;5061188;28;20029;-80
2022/01/18 11:37:30;;;;;;;49.05;18.67;;;;;;;;;;5071126;28;20044;-76
2022/01/18 11:40:08;;;;;;;52.03;19.60;;;;;;;;;;5032801;28;20032;-76
2022/01/18 11:42:51;;;;;;;60.35;20.80;;;;;;;;;;5064227;28;20040;-72
2022/01/18 11:45:26;;;;;;;53.05;20.80;;;;;;;;;;5064383;28;20098;-79
2022/01/18 11:48:05;;;;;;;59.58;18.75;;;;;;;;;;5064247;28;20036;-81
2022/01/18 11:50:37;;;;;;;58.38;20.77;;;;;;;;;;5055219;28;20068;-77
2022/01/18 11:53:28;;;;;;;49.83;19.13;;;;;;;;;;5062130;28;20077;-76
2022/01/18 11:55:58;;;;;;;60.47;20.80;;;;;;;;;;5063153;28;20138;-73
2022/01/18 11:58:25;;;;;;;53.63;19.85;;;;;;;;;;5068724;28;20044;-74
2022/01/18 12:00:57;;;;;;;63.05;21.45;;;;;;;;;;5062807;28;20067;-74
2022/01/18 12:03:28;;;;;;;53.75;19.83;;;;;;;;;;5068910;28;20029;-74
2022/01/18 12:06:01;;;;;;;51.92;18.98;;;;;;;;;;5059409;28;20033;-74
2022/01/18 12:08:33;;;;;;;45.53;15.60;;;;;;;;;;5057429;28;20044;-74
2022/01/18 12:10:59;;;;;;;46.38;15.93;;;;;;;;;;5060049;28;20024;-74
2022/01/18 12:13:34;;;;;;;55.58;16.40;;;;;;;;;;5061913;28;20066;-85
2022/01/18 12:16:09;;;;;;;51.80;17.23;;;;;;;;;;5064672;28;20335;-81
2022/01/18 12:18:34;;;;;;;47.58;16.27;;;;;;;;;;5062996;28;20082;-71
2022/01/18 12:21:03;;;;;;;56.10;18.90;;;;;;;;;;5058997;28;20542;-75
2022/01/18 12:23:40;;;;;;;58.38;19.30;;;;;;;;;;5060271;28;20037;-74
2022/01/18 12:26:47;;;;;;;48.65;16.40;;;;;;;;;;5057475;28;20084;-75
2022/01/18 12:37:16;;;;;;;39.65;14.95;;;;;;;;;;5066349;28;20294;-75
2022/01/18 12:39:54;;;;;;;48.50;16.65;;;;;;;;;;5054982;28;20040;-75
2022/01/18 12:45:37;;;;;;;47.00;15.73;;;;;;;;;;5064022;28;20048;-75
2022/01/18 12:48:08;;;;;;;39.78;14.63;;;;;;;;;;5059841;28;20131;-76
2022/01/18 12:50:40;;;;;;;33.67;12.73;;;;;;;;;;5059935;28;20179;-75
2022/01/18 12:53:10;;;;;;;40.72;13.50;;;;;;;;;;5055467;28;20262;-75
2022/01/18 12:55:46;;;;;;;32.95;12.20;;;;;;;;;;5061828;28;20040;-76
2022/01/18 12:58:26;;;;;;;34.05;11.55;;;;;;;;;;5057287;28;20045;-75
2022/01/18 13:01:00;;;;;;;33.38;11.98;;;;;;;;;;5052066;28;20098;-71
2022/01/18 13:03:37;;;;;;;32.75;12.68;;;;;;;;;;5053285;28;20037;-72
2022/01/18 13:06:05;;;;;;;31.60;12.13;;;;;;;;;;5054682;28;20044;-73
2022/01/18 13:08:48;;;;;;;27.08;11.90;;;;;;;;;;5065811;28;20035;-75
2022/01/18 13:11:17;;;;;;;35.22;11.40;;;;;;;;;;5056005;28;20952;-72
2022/01/18 13:13:50;;;;;;;33.13;11.63;;;;;;;;;;5057021;28;20419;-73
2022/01/18 13:27:12;;;;;;;24.25;8.00;;;;;;;;;;5080931;28;20036;-76
2022/01/18 13:29:37;;;;;;;26.30;8.88;;;;;;;;;;5080476;28;20528;-71
2022/01/18 13:32:12;;;;;;;30.67;9.15;;;;;;;;;;5078542;28;20055;-69
2022/01/18 13:34:40;;;;;;;27.90;10.15;;;;;;;;;;5083570;28;20026;-70
2022/01/18 13:37:08;;;;;;;25.00;9.50;;;;;;;;;;5082379;28;20090;-72
2022/01/18 13:39:46;;;;;;;23.48;9.13;;;;;;;;;;5084641;28;20590;-71
2022/01/18 13:42:15;;;;;;;18.92;7.85;;;;;;;;;;5075869;28;20335;-72
2022/01/18 13:45:12;;;;;;;22.63;8.05;;;;;;;;;;5066266;28;20263;-72
2022/01/18 13:47:42;;;;;;;21.40;7.50;;;;;;;;;;5057342;28;20043;-75
2022/01/18 13:50:26;;;;;;;21.02;7.20;;;;;;;;;;5055262;28;20074;-72
2022/01/18 13:53:03;;;;;;;25.98;7.50;;;;;;;;;;5066329;28;20102;-72
2022/01/18 13:55:30;;;;;;;22.35;6.78;;;;;;;;;;5057350;28;20029;-74
2022/01/18 13:58:00;;;;;;;19.23;6.30;;;;;;;;;;5074386;28;20106;-73
2022/01/18 14:00:27;;;;;;;16.30;6.55;;;;;;;;;;5068079;28;20049;-73
2022/01/18 14:02:53;;;;;;;16.38;6.10;;;;;;;;;;5069523;28;20066;-71
2022/01/18 14:05:21;;;;;;;15.07;5.35;;;;;;;;;;5079800;28;20116;-72
2022/01/18 14:07:48;;;;;;;16.67;6.57;;;;;;;;;;5057354;28;20119;-73
2022/01/18 14:10:14;;;;;;;18.95;5.25;;;;;;;;;;5055395;28;20120;-71
2022/01/18 14:12:39;;;;;;;15.50;5.45;;;;;;;;;;5058637;28;20156;-72
2022/01/18 14:15:06;;;;;;;19.33;4.22;;;;;;;;;;5058500;28;20043;-74
2022/01/18 14:17:32;;;;;;;10.30;3.55;;;;;;;;;;5064830;28;20035;-71
2022/01/18 14:20:04;;;;;;;10.18;3.30;;;;;;;;;;5058070;28;20024;-74
2022/01/18 14:22:38;;;;;;;10.60;3.53;;;;;;;;;;5055564;28;20027;-78
2022/01/18 14:25:05;;;;;;;;;;;;;;;;;;5058357;28;20035;-71
2022/01/18 14:27:41;;;;;;;11.45;3.30;;;;;;;;;;5055091;28;19916;-75
2022/01/18 14:30:20;;;;;;;6.60;3.05;;;;;;;;;;5053267;28;20469;-74
2022/01/18 14:32:49;;;;;;;8.48;3.40;;;;;;;;;;5053683;28;20042;-75
2022/01/18 14:35:22;;;;;;;8.70;3.00;;;;;;;;;;5059455;28;20055;-75
2022/01/18 14:37:49;;;;;;;12.77;3.97;;;;;;;;;;5067575;28;20083;-75
2022/01/18 14:40:18;;;;;;;9.02;3.50;;;;;;;;;;5077661;28;20067;-71
2022/01/18 14:42:47;;;;;;;9.20;3.47;;;;;;;;;;5078089;28;20051;-73
2022/01/18 14:47:41;;;;;;;8.45;3.35;;;;;;;;;;5078320;28;20415;-70
2022/01/18 14:50:10;;;;;;;9.55;3.00;;;;;;;;;;5075435;28;20028;-76
2022/01/18 14:52:37;;;;;;;9.07;3.33;;;;;;;;;;5077583;28;20024;-75
2022/01/18 14:55:04;;;;;;;7.65;3.22;;;;;;;;;;5073336;28;20147;-73
2022/01/18 14:57:30;;;;;;;12.68;3.67;;;;;;;;;;5063951;28;20029;-70
2022/01/18 14:59:55;;;;;;;11.75;3.55;;;;;;;;;;5054446;28;20045;-74
2022/01/18 15:02:21;;;;;;;10.70;3.53;;;;;;;;;;5061791;28;20048;-77
2022/01/18 15:04:46;;;;;;;9.63;3.58;;;;;;;;;;5054853;28;21143;-81
2022/01/18 15:07:12;;;;;;;14.43;4.32;;;;;;;;;;5052528;28;20119;-81
2022/01/18 15:09:37;;;;;;;17.25;4.10;;;;;;;;;;5056062;28;20041;-77
2022/01/18 15:12:05;;;;;;;12.85;3.80;;;;;;;;;;5052925;28;20592;-77
2022/01/18 15:14:30;;;;;;;12.07;3.63;;;;;;;;;;5055660;28;20119;-74
2022/01/18 15:16:57;;;;;;;8.70;3.40;;;;;;;;;;5060193;28;20136;-70
2022/01/18 15:19:22;;;;;;;11.40;3.10;;;;;;;;;;5055320;28;20078;-74
2022/01/18 15:21:48;;;;;;;8.15;3.13;;;;;;;;;;5049628;28;20048;-76
2022/01/18 15:24:13;;;;;;;14.73;3.72;;;;;;;;;;5057853;28;20048;-73
2022/01/18 15:26:39;;;;;;;13.60;3.72;;;;;;;;;;5055663;28;20041;-73
2022/01/18 15:29:04;;;;;;;11.90;4.30;;;;;;;;;;5055024;28;20088;-73
2022/01/18 15:31:30;;;;;;;12.20;4.28;;;;;;;;;;5054287;28;20028;-72
2022/01/18 15:33:56;;;;;;;9.18;4.20;;;;;;;;;;5053687;28;20139;-72
2022/01/18 15:36:22;;;;;;;16.90;4.70;;;;;;;;;;5050812;28;20135;-72
2022/01/18 15:38:47;;;;;;;15.25;4.10;;;;;;;;;;5058116;28;20113;-72
2022/01/18 15:41:13;;;;;;;18.95;7.25;;;;;;;;;;5057600;28;20120;-72
2022/01/18 15:43:38;;;;;;;18.83;6.50;;;;;;;;;;5087863;28;20030;-72
2022/01/18 15:46:05;;;;;;;21.10;6.03;;;;;;;;;;5060961;28;20032;-72
2022/01/18 15:48:31;;;;;;;27.13;6.18;;;;;;;;;;5058470;28;20170;-72
2022/01/18 15:50:56;;;;;;;18.20;6.05;;;;;;;;;;5056331;28;20149;-72
2022/01/18 15:53:22;;;;;;;19.65;6.53;;;;;;;;;;5067477;28;20040;-73
2022/01/18 15:55:47;;;;;;;18.77;5.75;;;;;;;;;;5056645;28;20031;-72
2022/01/18 15:58:14;;;;;;;21.75;7.90;;;;;;;;;;5058531;28;20045;-72
2022/01/18 16:00:43;;;;;;;17.98;6.50;;;;;;;;;;5054307;28;20063;-72
2022/01/18 16:03:09;;;;;;;26.10;7.20;;;;;;;;;;5058575;28;20033;-72
2022/01/18 16:05:37;;;;;;;21.13;7.35;;;;;;;;;;5065130;28;20591;-72